• Join FlightAware (Why Join?)
  • Login
  • US Flag 
11:56AM EST


 

Airport Tracker/Info


-or-


 

Live Flight TrackerFlight Track Log ✈ JZA7826 ✈ 24-Apr-2013 ✈ CYTS - CYYZ

Flight Track Log - Related Links

Times and Time Zones

All times are in EDT time to prevent confusion due to time zone crossing. See the JZA7826 flight status page for this flight to view local times or setup timezone preferences in your user account.

Time Position Orientation Groundspeed Altitude Reporting Facility
EDT Latitude Longitude Course Direction KTS MPH feet Rate Location/Type
12:28PM 48.2667 -81.1833 162° South 270 311 11,000  Level Toronto Center
12:29PM 48.0217 -81.6398 200° South  Level FlightAware Approximate
12:29PM 48.1833 -81.1500 165° South 280 322 12,700  Level Toronto Center
12:30PM 47.9447 -81.6012 161° South  Level Estimated
12:30PM 48.1167 -81.1500 180° South 290 334 14,700  Level Toronto Center
12:31PM 47.8677 -81.5626 161° South  Level Estimated
12:31PM 48.0333 -81.1333 172° South 300 345 14,800  Level Toronto Center
12:32PM 47.7906 -81.5242 161° South  Level Estimated
12:32PM 47.9333 -81.1000 167° South 320 368 14,900  Level Toronto Center
12:33PM 47.7144 -81.4863 162° South  Level Estimated
12:33PM 47.8500 -81.0667 165° South 320 368 14,800  Level Toronto Center
12:34PM 47.6381 -81.4485 162° South  Level Estimated
12:34PM 47.7500 -81.0500 174° South 320 368 14,800  Level Toronto Center
12:35PM 47.6667 -81.0167 165° South 320 368 14,900  Climbing Toronto Center
12:36PM 47.5833 -81.0167 180° South 320 368 14,900  Level Toronto Center
12:37PM 47.5000 -80.9833 165° South 320 368 14,900  Level Toronto Center
12:38PM 47.4000 -80.9667 174° South 320 368 14,900  Level Toronto Center
12:39PM 47.3167 -80.9333 165° South 320 368 14,900  Level Toronto Center
12:40PM 47.2333 -80.9000 165° South 300 345 14,900  Level Toronto Center
12:41PM 47.1667 -80.8833 170° South 300 345 14,900  Level Toronto Center
12:42PM 47.0833 -80.8833 180° South 300 345 14,900  Level Toronto Center
12:43PM 47.0000 -80.8500 165° South 310 357 14,900  Level Toronto Center
12:44PM 46.9167 -80.8333 172° South 310 357 14,900  Level Toronto Center
12:45PM 46.8333 -80.8000 165° South 310 357 14,900  Level Toronto Center
12:46PM 46.7500 -80.7667 165° South 300 345 14,900  Level Toronto Center
12:47PM 46.6667 -80.7500 172° South 300 345 14,900  Level Toronto Center
12:48PM 46.5833 -80.7167 165° South 300 345 14,900  Level Toronto Center
12:49PM 46.5000 -80.7167 180° South 300 345 14,900  Level Toronto Center
12:50PM 46.4167 -80.7000 172° South 300 345 14,900  Level Toronto Center
12:51PM 46.3333 -80.6667 165° South 310 357 14,900  Level Toronto Center
12:52PM 46.2500 -80.6500 172° South 310 357 14,900  Level Toronto Center
12:53PM 46.1667 -80.6167 165° South 310 357 14,900  Level Toronto Center
12:54PM 46.0833 -80.6167 180° South 310 357 14,900  Level Toronto Center
12:55PM 46.0000 -80.6000 172° South 310 357 15,000  Climbing Toronto Center
12:56PM 45.9167 -80.5667 164° South 310 357 15,000  Level Toronto Center
12:57PM 45.8333 -80.5333 164° South 310 357 15,000  Level Toronto Center
12:58PM 45.7500 -80.5167 172° South 310 357 15,000  Level Toronto Center
12:59PM 45.6667 -80.4833 164° South 300 345 15,000  Level Toronto Center
01:00PM 45.5833 -80.4833 180° South 300 345 15,000  Level Toronto Center
01:01PM 45.5000 -80.4667 172° South 300 345 15,000  Level Toronto Center
01:02PM 45.4167 -80.4333 164° South 300 345 15,000  Level Toronto Center
01:03PM 45.3333 -80.4167 172° South 300 345 15,000  Level Toronto Center
01:04PM 45.2500 -80.3833 164° South 300 345 15,000  Level Toronto Center
01:05PM 45.1667 -80.3833 180° South 290 334 15,000  Level Toronto Center
01:06PM 45.0833 -80.3667 172° South 300 345 15,000  Level Toronto Center
01:07PM 45.0167 -80.3333 161° South 300 345 15,000  Level Toronto Center
01:08PM 44.9333 -80.3167 172° South 290 334 15,000  Level Toronto Center
01:09PM 44.8500 -80.3167 180° South 290 334 15,000  Level Toronto Center
01:10PM 44.7667 -80.2833 164° South 290 334 15,000  Level Toronto Center
01:11PM 44.6833 -80.2667 172° South 300 345 15,000  Level Toronto Center
01:12PM 44.6000 -80.2333 164° South 300 345 15,000 -300 Level Toronto Center
01:13PM 44.5167 -80.2167 172° South 310 357 14,500 -600 Descending Toronto Center
01:14PM 44.4333 -80.2000 172° South 310 357 13,900 -720 Descending Toronto Center
01:15PM 44.3500 -80.2000 180° South 310 357 13,100 -780 Descending Toronto Center
01:16PM 44.2667 -80.1667 164° South 300 345 12,400 -720 Descending Toronto Center
01:17PM 44.1833 -80.1500 172° South 290 334 11,700 -660 Descending Toronto Center
01:18PM 44.1167 -80.1167 160° South 290 334 11,100 -660 Descending Toronto Center
01:19PM 44.0500 -80.0333 138° Southeast 300 345 10,400 -780 Descending Toronto Center
01:20PM 43.9833 -79.9500 138° Southeast 300 345 9,600 -780 Descending Toronto Center
01:21PM 43.9167 -79.9167 160° South 270 311 8,900 -720 Descending Toronto Center
01:22PM 43.8667 -79.8333 130° Southeast 260 299 8,200 -480 Descending Toronto Center
01:23PM 43.8167 -79.7667 136° Southeast 250 288 8,000 -240 Descending Toronto Center
01:24PM 43.7500 -79.7333 160° South 250 288 7,800 -660 Descending Toronto Center
01:25PM 43.7000 -79.7500 194° South 210 242 6,700 -1,200 Descending Toronto Center
01:26PM 43.6500 -79.8000 216° Southwest 190 219 5,400 -1,260 Descending Toronto Center
01:27PM 43.6167 -79.8333 216° Southwest 170 196 4,200 -1,080 Descending Toronto Center
01:28PM 43.5833 -79.8333 180° South 170 196 3,300 -600 Descending Toronto Center
01:29PM 43.5500 -79.8000 144° Southeast 180 207 3,000 -180 Descending Toronto Center
01:30PM 43.5667 -79.7167 75° East 200 230 3,000 -600 Level Toronto Center
01:31PM 43.6000 -79.6833 36° Northeast 200 230 1,900 -900 Descending Toronto Center
01:32PM 43.6333 -79.6333 47° Northeast 160 184 1,200 -660 Descending Toronto Center
01:33PM 43.6500 -79.6167 36° Northeast 110 127 600 -600 Descending Toronto Center